Time;durP1;ratioP1;P1;durP2;ratioP2;P2;SDS_P1;SDS_P2;PMS_P1;PMS_P2;Temp;Humidity;BMP_temperature;BMP_pressure;BME280_temperature;BME280_humidity;BME280_pressure;Samples;Min_cycle;Max_cycle;Signal;HPM_P1;HPM_P2
2021/04/20 00:01:48;;;;;;;8.32;5.22;;;;;;;;;;5014592;28;20030;-46
2021/04/20 00:04:14;;;;;;;7.10;4.60;;;;;;;;;;5013564;28;20034;-46
2021/04/20 00:06:41;;;;;;;7.13;4.60;;;;;;;;;;5014674;28;20030;-46
2021/04/20 00:09:08;;;;;;;6.95;4.15;;;;;;;;;;5013280;28;20480;-47
2021/04/20 00:11:34;;;;;;;11.00;4.95;;;;;;;;;;5013416;28;20026;-47
2021/04/20 00:14:00;;;;;;;13.07;5.90;;;;;;;;;;5013506;28;20036;-46
2021/04/20 00:16:26;;;;;;;20.13;7.43;;;;;;;;;;5013505;28;20030;-46
2021/04/20 00:18:53;;;;;;;14.07;6.18;;;;;;;;;;5013455;28;20417;-47
2021/04/20 00:21:19;;;;;;;9.57;4.75;;;;;;;;;;5013331;28;20021;-46
2021/04/20 00:23:45;;;;;;;8.57;4.72;;;;;;;;;;5013008;28;20033;-47
2021/04/20 00:26:11;;;;;;;8.23;4.30;;;;;;;;;;5012975;28;20549;-47
2021/04/20 00:28:37;;;;;;;6.28;3.65;;;;;;;;;;5012973;28;20029;-46
2021/04/20 00:31:03;;;;;;;7.18;3.97;;;;;;;;;;4995397;28;20025;-46
2021/04/20 00:33:29;;;;;;;8.82;4.25;;;;;;;;;;5013534;28;20030;-48
2021/04/20 00:35:56;;;;;;;7.80;4.32;;;;;;;;;;5012918;28;20053;-46
2021/04/20 00:38:22;;;;;;;10.98;4.85;;;;;;;;;;5013230;28;20037;-47
2021/04/20 00:40:48;;;;;;;9.68;4.65;;;;;;;;;;5012796;28;20486;-51
2021/04/20 00:43:14;;;;;;;9.55;4.82;;;;;;;;;;5012724;28;20018;-46
2021/04/20 00:45:43;;;;;;;9.25;4.30;;;;;;;;;;5012660;28;20029;-46
2021/04/20 00:48:09;;;;;;;8.38;4.65;;;;;;;;;;5013056;28;20386;-46
2021/04/20 00:50:36;;;;;;;8.73;4.60;;;;;;;;;;5012776;28;20049;-46
2021/04/20 00:55:38;;;;;;;8.82;4.88;;;;;;;;;;4629244;26;20054;-44
2021/04/20 00:58:04;;;;;;;6.82;4.20;;;;;;;;;;5031644;28;20034;-45
2021/04/20 01:00:31;;;;;;;8.18;4.60;;;;;;;;;;5031685;28;20021;-47
2021/04/20 01:02:58;;;;;;;8.57;5.10;;;;;;;;;;5013920;28;20388;-44
2021/04/20 01:05:30;;;;;;;7.85;4.40;;;;;;;;;;5031525;28;20101;-44
2021/04/20 01:08:01;;;;;;;7.03;4.32;;;;;;;;;;5013777;28;20036;-44
2021/04/20 01:10:27;;;;;;;7.63;4.45;;;;;;;;;;5031524;28;20022;-46
2021/04/20 01:12:54;;;;;;;7.32;4.88;;;;;;;;;;5031373;28;20084;-44
2021/04/20 01:15:20;;;;;;;7.68;5.00;;;;;;;;;;5031509;28;20028;-46
2021/04/20 01:17:46;;;;;;;9.43;4.68;;;;;;;;;;5031341;28;20078;-44
2021/04/20 01:20:13;;;;;;;6.13;4.18;;;;;;;;;;5031385;28;20064;-44
2021/04/20 01:22:40;;;;;;;7.40;4.40;;;;;;;;;;5031648;28;20064;-44
2021/04/20 01:25:07;;;;;;;6.88;4.85;;;;;;;;;;5013460;28;20040;-45
2021/04/20 01:27:34;;;;;;;8.27;5.05;;;;;;;;;;5031319;28;20026;-45
2021/04/20 01:30:00;;;;;;;8.82;4.90;;;;;;;;;;5031453;28;20055;-44
2021/04/20 01:32:27;;;;;;;7.60;5.35;;;;;;;;;;5031256;28;20476;-46
2021/04/20 01:34:53;;;;;;;7.53;4.78;;;;;;;;;;5031258;28;20034;-44
2021/04/20 01:37:19;;;;;;;8.18;5.13;;;;;;;;;;5031239;28;20473;-44
2021/04/20 01:39:50;;;;;;;7.97;4.40;;;;;;;;;;5031118;28;20547;-44
2021/04/20 01:42:16;;;;;;;7.05;4.65;;;;;;;;;;5032558;28;20025;-43
2021/04/20 01:44:42;;;;;;;6.95;4.80;;;;;;;;;;5034946;28;20044;-44
2021/04/20 01:47:10;;;;;;;6.78;4.72;;;;;;;;;;5035017;28;20029;-44
2021/04/20 01:49:36;;;;;;;7.57;5.00;;;;;;;;;;5034984;28;20022;-45
2021/04/20 01:52:02;;;;;;;9.55;5.68;;;;;;;;;;5035095;28;20026;-44
2021/04/20 01:54:28;;;;;;;8.63;6.10;;;;;;;;;;5034545;28;20505;-45
2021/04/20 01:56:55;;;;;;;7.90;5.15;;;;;;;;;;5035102;28;20065;-44
2021/04/20 01:59:22;;;;;;;7.88;5.55;;;;;;;;;;5035007;28;20076;-44
2021/04/20 02:01:48;;;;;;;7.93;5.43;;;;;;;;;;5034792;28;20036;-46
2021/04/20 02:04:15;;;;;;;7.95;5.28;;;;;;;;;;5034630;28;20548;-45
2021/04/20 02:06:41;;;;;;;7.93;5.10;;;;;;;;;;5034670;28;20083;-44
2021/04/20 02:09:07;;;;;;;7.57;5.18;;;;;;;;;;5034475;28;20026;-44
2021/04/20 02:11:34;;;;;;;7.20;4.97;;;;;;;;;;5035036;28;20030;-45
2021/04/20 02:14:00;;;;;;;8.48;5.47;;;;;;;;;;5034539;28;20140;-44
2021/04/20 02:16:26;;;;;;;8.68;5.55;;;;;;;;;;5034478;28;20044;-44
2021/04/20 02:18:55;;;;;;;9.45;6.05;;;;;;;;;;5034362;28;20100;-46
2021/04/20 02:21:21;;;;;;;10.48;6.72;;;;;;;;;;5034420;28;20033;-44
2021/04/20 02:23:47;;;;;;;8.57;6.35;;;;;;;;;;5034314;28;20033;-44
2021/04/20 02:26:15;;;;;;;8.82;6.15;;;;;;;;;;5034103;28;20030;-44
2021/04/20 02:28:41;;;;;;;9.88;5.95;;;;;;;;;;5034248;28;20083;-43
2021/04/20 02:31:08;;;;;;;11.50;6.85;;;;;;;;;;5034239;28;20021;-44
2021/04/20 02:33:35;;;;;;;14.18;8.18;;;;;;;;;;5034304;28;20021;-45
2021/04/20 02:36:02;;;;;;;15.85;7.22;;;;;;;;;;5034103;28;20472;-45
2021/04/20 02:38:28;;;;;;;28.92;13.00;;;;;;;;;;5034191;28;20108;-45
2021/04/20 02:40:55;;;;;;;18.70;9.13;;;;;;;;;;5016091;28;20029;-44
2021/04/20 02:43:22;;;;;;;17.02;7.85;;;;;;;;;;5033931;28;20041;-44
2021/04/20 02:45:49;;;;;;;13.65;7.32;;;;;;;;;;5033946;28;20026;-44
2021/04/20 02:48:15;;;;;;;17.05;7.40;;;;;;;;;;5033927;28;20104;-44
2021/04/20 02:50:42;;;;;;;14.65;7.90;;;;;;;;;;5034203;28;20022;-54
2021/04/20 02:53:08;;;;;;;13.43;7.13;;;;;;;;;;5033671;28;20219;-45
2021/04/20 02:55:35;;;;;;;11.95;6.93;;;;;;;;;;5033585;28;20052;-44
2021/04/20 02:58:01;;;;;;;12.98;7.65;;;;;;;;;;5033800;28;20074;-44
2021/04/20 03:00:28;;;;;;;12.35;7.05;;;;;;;;;;5034042;28;20461;-45
2021/04/20 03:02:56;;;;;;;12.43;7.78;;;;;;;;;;5033610;28;20025;-47
2021/04/20 03:05:24;;;;;;;10.02;6.45;;;;;;;;;;5033635;28;20040;-44
2021/04/20 03:07:50;;;;;;;10.25;6.35;;;;;;;;;;5033659;28;20037;-44
2021/04/20 03:10:17;;;;;;;11.23;6.70;;;;;;;;;;5033397;28;20075;-45
2021/04/20 03:12:44;;;;;;;10.60;7.00;;;;;;;;;;5033573;28;20092;-44
2021/04/20 03:15:12;;;;;;;16.10;7.93;;;;;;;;;;5033454;28;20025;-45
2021/04/20 03:17:39;;;;;;;19.65;10.10;;;;;;;;;;5033559;28;20075;-46
2021/04/20 03:20:08;;;;;;;13.98;7.82;;;;;;;;;;5033794;28;20071;-44
2021/04/20 03:22:34;;;;;;;16.33;7.28;;;;;;;;;;5033243;28;20496;-44
2021/04/20 03:25:09;;;;;;;17.52;8.35;;;;;;;;;;5033083;28;20060;-44
2021/04/20 03:27:35;;;;;;;12.93;6.90;;;;;;;;;;5033289;28;20048;-44
2021/04/20 03:30:02;;;;;;;12.50;7.22;;;;;;;;;;5033207;28;20028;-45
2021/04/20 03:32:29;;;;;;;19.10;9.05;;;;;;;;;;5033384;28;20033;-45
2021/04/20 03:35:00;;;;;;;11.68;7.32;;;;;;;;;;5033356;28;20152;-43
2021/04/20 03:37:31;;;;;;;11.82;7.63;;;;;;;;;;5032975;28;20482;-45
2021/04/20 03:39:59;;;;;;;10.95;6.85;;;;;;;;;;5032825;28;20022;-44
2021/04/20 03:42:28;;;;;;;9.43;6.20;;;;;;;;;;5032907;28;20029;-44
2021/04/20 03:44:55;;;;;;;13.50;6.75;;;;;;;;;;5032856;28;20034;-43
2021/04/20 03:47:24;;;;;;;11.00;7.07;;;;;;;;;;5032876;28;20030;-45
2021/04/20 03:49:52;;;;;;;11.40;7.68;;;;;;;;;;5032758;28;20035;-44
2021/04/20 03:52:19;;;;;;;11.52;6.97;;;;;;;;;;5032822;28;20088;-45
2021/04/20 03:54:47;;;;;;;12.23;7.35;;;;;;;;;;5032559;28;20404;-44
2021/04/20 03:57:15;;;;;;;10.73;7.47;;;;;;;;;;5032503;28;20512;-44
2021/04/20 03:59:43;;;;;;;10.80;6.68;;;;;;;;;;5032690;28;20029;-45
2021/04/20 04:02:09;;;;;;;12.82;7.57;;;;;;;;;;5032900;28;20017;-44
2021/04/20 04:04:37;;;;;;;17.60;9.60;;;;;;;;;;5031714;28;20038;-44
2021/04/20 04:07:04;;;;;;;19.95;8.52;;;;;;;;;;5032473;28;20021;-44
2021/04/20 04:09:30;;;;;;;16.42;9.25;;;;;;;;;;5032410;28;20029;-45
2021/04/20 04:11:59;;;;;;;16.58;9.15;;;;;;;;;;5032218;28;20025;-44
2021/04/20 04:14:28;;;;;;;15.27;9.13;;;;;;;;;;5032534;28;20021;-45
2021/04/20 04:17:00;;;;;;;12.80;7.82;;;;;;;;;;5032296;28;20380;-45
2021/04/20 04:19:28;;;;;;;16.92;9.30;;;;;;;;;;5032135;28;20030;-45
2021/04/20 04:21:57;;;;;;;15.05;8.30;;;;;;;;;;5032400;28;20073;-44
2021/04/20 04:24:24;;;;;;;13.98;8.50;;;;;;;;;;5031974;28;20045;-46
2021/04/20 04:26:52;;;;;;;15.73;8.95;;;;;;;;;;5031969;28;20068;-44
2021/04/20 04:29:20;;;;;;;15.10;8.57;;;;;;;;;;5032121;28;20424;-47
2021/04/20 04:31:47;;;;;;;12.55;7.30;;;;;;;;;;5031944;28;20261;-44
2021/04/20 04:34:14;;;;;;;10.38;7.18;;;;;;;;;;5032185;28;20049;-45
2021/04/20 04:36:43;;;;;;;9.07;6.50;;;;;;;;;;5032120;28;20052;-44
2021/04/20 04:39:10;;;;;;;9.90;6.50;;;;;;;;;;5032097;28;20022;-44
2021/04/20 04:41:37;;;;;;;11.60;7.25;;;;;;;;;;5031669;28;20144;-45
2021/04/20 04:44:03;;;;;;;11.02;7.10;;;;;;;;;;5031750;28;20030;-44
2021/04/20 04:46:29;;;;;;;15.35;7.70;;;;;;;;;;5031860;28;20060;-45
2021/04/20 04:48:56;;;;;;;12.38;7.65;;;;;;;;;;5031787;28;20026;-43
2021/04/20 04:51:22;;;;;;;15.80;8.63;;;;;;;;;;5031699;28;20087;-45
2021/04/20 04:53:48;;;;;;;14.98;8.68;;;;;;;;;;5031511;28;20396;-44
2021/04/20 04:56:16;;;;;;;15.32;8.05;;;;;;;;;;5031701;28;20025;-44
2021/04/20 04:58:42;;;;;;;13.82;8.77;;;;;;;;;;5031759;28;20025;-45
2021/04/20 05:01:12;;;;;;;12.98;8.15;;;;;;;;;;5031622;28;20033;-44
2021/04/20 05:03:40;;;;;;;12.13;7.80;;;;;;;;;;5031796;28;20052;-42
2021/04/20 05:06:07;;;;;;;10.02;7.20;;;;;;;;;;5031522;28;20105;-44
2021/04/20 05:08:33;;;;;;;11.18;7.03;;;;;;;;;;5031775;28;20052;-44
2021/04/20 05:11:03;;;;;;;12.13;7.70;;;;;;;;;;5031352;28;20021;-45
2021/04/20 05:13:30;;;;;;;12.65;7.57;;;;;;;;;;5031738;28;20112;-44
2021/04/20 05:15:56;;;;;;;14.90;8.20;;;;;;;;;;5032074;28;20029;-44
2021/04/20 05:18:24;;;;;;;13.00;8.38;;;;;;;;;;5035684;28;20111;-44
2021/04/20 05:20:50;;;;;;;13.38;7.88;;;;;;;;;;5035481;28;20025;-44
2021/04/20 05:23:17;;;;;;;12.77;8.05;;;;;;;;;;5035665;28;20025;-44
2021/04/20 05:25:43;;;;;;;11.40;8.18;;;;;;;;;;5035627;28;20030;-45
2021/04/20 05:28:09;;;;;;;14.30;8.25;;;;;;;;;;5035566;28;20026;-44
2021/04/20 05:30:36;;;;;;;12.40;8.13;;;;;;;;;;5035696;28;20048;-45
2021/04/20 05:33:03;;;;;;;12.95;8.55;;;;;;;;;;5035337;28;20109;-44
2021/04/20 05:35:29;;;;;;;12.10;8.32;;;;;;;;;;5035337;28;20026;-45
2021/04/20 05:37:55;;;;;;;14.95;7.68;;;;;;;;;;5036226;28;20080;-45
2021/04/20 05:40:30;;;;;;;15.00;8.50;;;;;;;;;;5036206;28;20017;-45
2021/04/20 05:42:57;;;;;;;11.73;8.02;;;;;;;;;;5035639;28;20029;-45
2021/04/20 05:45:23;;;;;;;10.27;6.88;;;;;;;;;;5035750;28;20033;-44
2021/04/20 05:47:51;;;;;;;10.20;7.38;;;;;;;;;;5035807;28;20500;-45
2021/04/20 05:50:28;;;;;;;12.60;7.85;;;;;;;;;;5045229;28;20036;-47
2021/04/20 05:52:55;;;;;;;12.00;7.20;;;;;;;;;;5035711;28;20029;-44
2021/04/20 05:55:21;;;;;;;11.55;7.55;;;;;;;;;;5048753;28;20053;-45
2021/04/20 05:57:52;;;;;;;12.18;7.22;;;;;;;;;;5055757;28;20071;-46
2021/04/20 06:00:19;;;;;;;12.82;8.20;;;;;;;;;;5055744;28;20039;-45
2021/04/20 06:02:49;;;;;;;12.43;7.90;;;;;;;;;;5040512;28;20025;-45
2021/04/20 06:05:17;;;;;;;12.00;7.78;;;;;;;;;;5034819;28;20037;-44
2021/04/20 06:07:48;;;;;;;18.13;11.00;;;;;;;;;;5032915;28;20341;-48
2021/04/20 06:10:15;;;;;;;15.15;9.00;;;;;;;;;;5016279;28;20358;-45
2021/04/20 06:12:42;;;;;;;14.55;9.27;;;;;;;;;;5024757;28;20021;-51
2021/04/20 06:15:09;;;;;;;12.35;8.50;;;;;;;;;;5028288;28;20508;-45
2021/04/20 06:17:37;;;;;;;15.15;8.98;;;;;;;;;;5022833;28;20022;-46
2021/04/20 06:20:04;;;;;;;15.15;9.30;;;;;;;;;;5026318;28;20033;-45
2021/04/20 06:22:30;;;;;;;13.60;8.32;;;;;;;;;;5015877;28;20021;-45
2021/04/20 06:24:57;;;;;;;14.30;8.93;;;;;;;;;;5033033;28;20033;-45
2021/04/20 06:27:23;;;;;;;17.30;9.80;;;;;;;;;;5033984;28;20041;-45
2021/04/20 06:29:49;;;;;;;14.48;8.98;;;;;;;;;;5033939;28;20372;-46
2021/04/20 06:32:15;;;;;;;18.23;10.48;;;;;;;;;;5033264;28;20033;-45
2021/04/20 06:34:42;;;;;;;21.65;11.70;;;;;;;;;;5034243;28;20025;-45
2021/04/20 06:37:09;;;;;;;24.48;12.25;;;;;;;;;;5033874;28;20025;-45
2021/04/20 06:39:36;;;;;;;22.13;11.45;;;;;;;;;;5034191;28;20049;-45
2021/04/20 06:42:03;;;;;;;20.38;11.30;;;;;;;;;;5033975;28;20045;-45
2021/04/20 06:44:40;;;;;;;17.83;10.18;;;;;;;;;;5030958;28;20069;-47
2021/04/20 06:47:17;;;;;;;14.77;9.80;;;;;;;;;;5028517;28;20061;-50
2021/04/20 06:49:45;;;;;;;17.42;10.90;;;;;;;;;;5029894;28;20588;-46
2021/04/20 06:52:15;;;;;;;17.30;10.68;;;;;;;;;;5034127;28;20034;-44
2021/04/20 06:54:44;;;;;;;18.42;11.20;;;;;;;;;;5033405;28;20045;-43
2021/04/20 06:57:14;;;;;;;18.35;11.60;;;;;;;;;;5034390;28;20104;-45
2021/04/20 06:59:49;;;;;;;17.25;11.55;;;;;;;;;;5027947;28;20056;-45
2021/04/20 07:02:30;;;;;;;18.92;11.18;;;;;;;;;;5014496;28;20503;-45
2021/04/20 07:04:58;;;;;;;17.17;10.80;;;;;;;;;;5053066;28;20048;-46
2021/04/20 07:07:27;;;;;;;20.05;12.95;;;;;;;;;;5053931;28;20014;-50
2021/04/20 07:10:07;;;;;;;15.52;9.88;;;;;;;;;;5053639;28;20033;-45
2021/04/20 07:12:35;;;;;;;14.82;9.15;;;;;;;;;;5053668;28;20480;-45
2021/04/20 07:15:02;;;;;;;13.98;9.02;;;;;;;;;;5046190;28;20052;-46
2021/04/20 07:17:46;;;;;;;14.32;9.82;;;;;;;;;;5032772;28;20037;-46
2021/04/20 07:20:19;;;;;;;16.92;10.10;;;;;;;;;;5029807;28;20028;-48
2021/04/20 07:23:09;;;;;;;16.80;10.40;;;;;;;;;;5033403;28;20072;-48
2021/04/20 07:25:55;;;;;;;19.73;12.73;;;;;;;;;;5033124;28;20037;-46
2021/04/20 07:28:30;;;;;;;17.45;10.93;;;;;;;;;;5040124;28;20037;-47
2021/04/20 07:31:15;;;;;;;16.75;11.40;;;;;;;;;;5042005;28;20028;-46
2021/04/20 07:33:41;;;;;;;14.85;10.35;;;;;;;;;;5032294;28;20421;-49
2021/04/20 07:36:10;;;;;;;14.13;10.15;;;;;;;;;;5031889;28;20053;-46
2021/04/20 07:38:42;;;;;;;17.42;10.38;;;;;;;;;;5038926;28;20021;-46
2021/04/20 07:41:11;;;;;;;16.65;11.25;;;;;;;;;;5049450;28;20032;-45
2021/04/20 07:43:56;;;;;;;19.08;11.60;;;;;;;;;;5051623;28;20033;-47
2021/04/20 07:46:45;;;;;;;15.05;10.55;;;;;;;;;;5041441;28;20512;-46
2021/04/20 07:49:29;;;;;;;16.02;11.23;;;;;;;;;;5032093;28;20025;-46
2021/04/20 07:51:56;;;;;;;14.77;9.68;;;;;;;;;;5031022;28;20072;-46
2021/04/20 07:54:31;;;;;;;15.07;9.82;;;;;;;;;;5027295;28;20060;-46
2021/04/20 07:57:13;;;;;;;21.00;11.18;;;;;;;;;;5028581;28;20537;-46
2021/04/20 07:59:44;;;;;;;15.00;9.65;;;;;;;;;;5037141;28;20025;-45
2021/04/20 08:02:19;;;;;;;17.50;9.38;;;;;;;;;;5052477;28;20021;-46
2021/04/20 08:04:51;;;;;;;18.13;9.60;;;;;;;;;;5052665;28;20120;-45
2021/04/20 08:07:47;;;;;;;15.20;8.65;;;;;;;;;;5046785;28;20021;-47
2021/04/20 08:10:13;;;;;;;14.90;9.48;;;;;;;;;;5011896;28;20636;-48
2021/04/20 08:12:58;;;;;;;18.05;10.27;;;;;;;;;;5047393;28;20025;-46
2021/04/20 08:15:34;;;;;;;12.65;8.68;;;;;;;;;;5052351;28;20021;-48
2021/04/20 08:18:07;;;;;;;12.65;8.43;;;;;;;;;;5046619;28;20039;-45
2021/04/20 08:20:34;;;;;;;15.52;10.05;;;;;;;;;;5030792;28;20095;-47
2021/04/20 08:23:00;;;;;;;13.52;9.65;;;;;;;;;;5031208;28;20027;-45
2021/04/20 08:25:44;;;;;;;14.85;9.65;;;;;;;;;;5032318;28;20358;-46
2021/04/20 08:28:10;;;;;;;;;;;;;;;;;;5033127;28;20095;-45
2021/04/20 08:30:40;;;;;;;15.85;10.00;;;;;;;;;;5032335;28;20008;-46
2021/04/20 08:33:09;;;;;;;17.55;9.68;;;;;;;;;;5012971;28;20105;-46
2021/04/20 08:35:36;;;;;;;11.68;7.97;;;;;;;;;;4994830;28;20117;-46
2021/04/20 08:38:02;;;;;;;12.23;8.15;;;;;;;;;;5020790;28;20024;-46
2021/04/20 08:40:47;;;;;;;12.43;8.60;;;;;;;;;;5033658;28;20120;-47
2021/04/20 08:43:19;;;;;;;14.40;9.80;;;;;;;;;;5031953;28;20029;-47
2021/04/20 08:45:54;;;;;;;14.07;9.17;;;;;;;;;;5031706;28;20033;-47
2021/04/20 08:48:30;;;;;;;16.60;10.95;;;;;;;;;;5032511;28;20075;-47
2021/04/20 08:51:01;;;;;;;19.35;7.68;;;;;;;;;;5031966;28;20033;-47
2021/04/20 08:53:39;;;;;;;10.38;7.15;;;;;;;;;;5051170;28;20032;-48
2021/04/20 08:56:12;;;;;;;13.10;8.57;;;;;;;;;;5044998;28;20029;-47
2021/04/20 08:58:44;;;;;;;14.05;7.90;;;;;;;;;;5021890;28;20404;-46
2021/04/20 09:01:18;;;;;;;10.13;6.82;;;;;;;;;;5012463;28;20033;-46
2021/04/20 09:03:47;;;;;;;10.98;7.93;;;;;;;;;;5011926;28;20037;-44
2021/04/20 09:06:21;;;;;;;10.45;6.85;;;;;;;;;;5011762;28;20485;-45
2021/04/20 09:08:49;;;;;;;12.60;7.32;;;;;;;;;;5024466;28;20342;-47
2021/04/20 09:11:20;;;;;;;11.32;7.57;;;;;;;;;;5034124;28;20163;-46
2021/04/20 09:13:58;;;;;;;9.73;7.30;;;;;;;;;;5035802;28;20488;-48
2021/04/20 09:16:34;;;;;;;9.15;6.30;;;;;;;;;;5032046;28;20029;-44
2021/04/20 09:19:01;;;;;;;15.07;8.40;;;;;;;;;;5032206;28;20087;-46
2021/04/20 09:21:31;;;;;;;13.93;7.80;;;;;;;;;;5027197;28;20013;-50
2021/04/20 09:24:03;;;;;;;11.15;8.25;;;;;;;;;;5030535;28;20381;-50
2021/04/20 09:26:48;;;;;;;10.73;7.15;;;;;;;;;;5032220;28;20108;-46
2021/04/20 09:29:17;;;;;;;12.63;7.05;;;;;;;;;;5031834;28;20072;-46
2021/04/20 09:32:00;;;;;;;13.65;7.72;;;;;;;;;;5031722;28;20049;-46
2021/04/20 09:34:31;;;;;;;16.08;12.98;;;;;;;;;;5012079;28;20462;-46
2021/04/20 09:36:58;;;;;;;13.10;7.10;;;;;;;;;;5020871;28;20480;-47
2021/04/20 09:39:25;;;;;;;9.05;6.97;;;;;;;;;;5017100;28;20298;-46
2021/04/20 09:41:52;;;;;;;9.30;6.50;;;;;;;;;;5012351;28;20034;-47
2021/04/20 09:44:31;;;;;;;9.63;6.35;;;;;;;;;;5011858;28;20092;-48
2021/04/20 09:47:06;;;;;;;9.65;6.45;;;;;;;;;;5012049;28;20030;-44
2021/04/20 09:49:36;;;;;;;7.78;5.70;;;;;;;;;;5011881;28;20038;-49
2021/04/20 09:52:07;;;;;;;9.15;6.18;;;;;;;;;;5011895;28;20026;-46
2021/04/20 09:54:41;;;;;;;10.13;7.00;;;;;;;;;;5011730;28;20413;-49
2021/04/20 09:57:08;;;;;;;9.30;6.72;;;;;;;;;;5011979;28;20037;-46
2021/04/20 09:59:46;;;;;;;7.10;4.82;;;;;;;;;;5036719;28;20037;-47
2021/04/20 10:02:31;;;;;;;7.35;5.13;;;;;;;;;;5051809;28;20091;-47
2021/04/20 10:05:36;;;;;;;8.90;6.32;;;;;;;;;;5055029;28;20028;-50
2021/04/20 10:08:20;;;;;;;9.60;6.80;;;;;;;;;;4929396;29;20031;-47
2021/04/20 10:10:51;;;;;;;8.77;6.20;;;;;;;;;;4935565;29;20034;-47
2021/04/20 10:13:17;;;;;;;8.68;6.30;;;;;;;;;;4998659;28;20047;-50
2021/04/20 10:15:57;;;;;;;8.63;6.32;;;;;;;;;;5035232;28;20030;-48
2021/04/20 10:18:33;;;;;;;9.10;6.10;;;;;;;;;;5035483;28;20029;-49
2021/04/20 10:21:18;;;;;;;8.63;6.05;;;;;;;;;;5035219;28;20025;-48
2021/04/20 10:23:51;;;;;;;7.85;5.10;;;;;;;;;;5035071;28;20494;-45
2021/04/20 10:26:23;;;;;;;7.28;5.60;;;;;;;;;;5035138;28;20029;-48
2021/04/20 10:28:53;;;;;;;8.20;6.03;;;;;;;;;;5035296;28;20420;-45
2021/04/20 10:31:22;;;;;;;7.85;5.93;;;;;;;;;;5035146;28;20022;-45
2021/04/20 10:33:50;;;;;;;7.20;5.35;;;;;;;;;;5034848;28;20052;-44
2021/04/20 10:36:16;;;;;;;6.78;5.15;;;;;;;;;;5034910;28;20025;-48
2021/04/20 10:38:43;;;;;;;7.30;5.20;;;;;;;;;;5035135;28;20049;-48
2021/04/20 10:41:26;;;;;;;6.38;4.85;;;;;;;;;;5034774;28;20083;-48
2021/04/20 10:43:53;;;;;;;8.80;5.93;;;;;;;;;;5034907;28;20041;-45
2021/04/20 10:46:24;;;;;;;8.05;5.78;;;;;;;;;;5034531;28;20029;-45
2021/04/20 10:48:51;;;;;;;8.73;5.55;;;;;;;;;;5034699;28;20053;-44
2021/04/20 10:51:18;;;;;;;9.13;6.10;;;;;;;;;;5034871;28;20338;-48
2021/04/20 10:53:46;;;;;;;6.80;4.72;;;;;;;;;;5034688;28;20339;-45
2021/04/20 10:56:14;;;;;;;7.38;4.97;;;;;;;;;;5034814;28;20374;-45
2021/04/20 10:58:44;;;;;;;6.25;4.75;;;;;;;;;;5034538;28;20022;-44
2021/04/20 11:01:14;;;;;;;7.20;4.72;;;;;;;;;;5034164;28;20029;-45
2021/04/20 11:03:41;;;;;;;8.68;5.63;;;;;;;;;;5034330;28;20139;-47
2021/04/20 11:06:07;;;;;;;11.05;6.20;;;;;;;;;;5034341;28;20469;-47
2021/04/20 11:08:36;;;;;;;9.20;6.30;;;;;;;;;;5034275;28;20021;-52
2021/04/20 11:11:03;;;;;;;8.48;5.80;;;;;;;;;;5034512;28;20034;-46
2021/04/20 11:13:36;;;;;;;7.22;5.20;;;;;;;;;;5034294;28;20470;-45
2021/04/20 11:16:04;;;;;;;6.55;4.63;;;;;;;;;;5034292;28;20051;-46
2021/04/20 11:18:33;;;;;;;7.88;5.50;;;;;;;;;;5034594;28;20041;-45
2021/04/20 11:21:03;;;;;;;8.55;5.72;;;;;;;;;;5034329;28;20029;-47
2021/04/20 11:23:30;;;;;;;8.25;5.80;;;;;;;;;;5034469;28;20025;-47
2021/04/20 11:26:01;;;;;;;7.75;5.30;;;;;;;;;;5034387;28;20095;-47
2021/04/20 11:28:34;;;;;;;8.80;6.05;;;;;;;;;;5034359;28;20051;-46
2021/04/20 11:31:07;;;;;;;7.97;5.60;;;;;;;;;;5034298;28;20365;-46
2021/04/20 11:33:36;;;;;;;8.10;5.05;;;;;;;;;;5033900;28;20488;-46
2021/04/20 11:36:05;;;;;;;7.10;5.10;;;;;;;;;;5033882;28;20571;-52
2021/04/20 11:38:40;;;;;;;9.32;5.90;;;;;;;;;;5034028;28;20021;-48
2021/04/20 11:41:07;;;;;;;7.38;5.30;;;;;;;;;;5033675;28;20021;-46
2021/04/20 11:43:36;;;;;;;11.23;5.65;;;;;;;;;;5033596;28;20048;-49
2021/04/20 11:46:02;;;;;;;7.43;4.95;;;;;;;;;;5033933;28;20029;-46
2021/04/20 11:48:34;;;;;;;12.68;5.97;;;;;;;;;;5033737;28;20025;-46
2021/04/20 11:51:01;;;;;;;6.65;4.50;;;;;;;;;;5033664;28;20035;-46
2021/04/20 11:53:29;;;;;;;6.35;4.35;;;;;;;;;;5033333;28;20484;-44
2021/04/20 11:56:02;;;;;;;12.13;6.00;;;;;;;;;;5033465;28;20104;-53
2021/04/20 11:58:29;;;;;;;5.65;4.18;;;;;;;;;;5033759;28;20361;-47
2021/04/20 12:01:01;;;;;;;6.18;4.18;;;;;;;;;;5033477;28;20033;-50
2021/04/20 12:03:28;;;;;;;5.53;4.13;;;;;;;;;;5033303;28;20045;-51
2021/04/20 12:05:55;;;;;;;6.72;4.00;;;;;;;;;;5033464;28;20514;-49
2021/04/20 12:08:23;;;;;;;7.03;4.45;;;;;;;;;;5033310;28;20109;-54
2021/04/20 12:10:51;;;;;;;8.00;4.90;;;;;;;;;;5033530;28;20052;-53
2021/04/20 12:13:21;;;;;;;7.05;4.80;;;;;;;;;;5033170;28;20064;-52
2021/04/20 12:15:53;;;;;;;5.97;4.53;;;;;;;;;;5033064;28;20369;-51
2021/04/20 12:18:19;;;;;;;7.22;4.20;;;;;;;;;;5032929;28;20025;-47
2021/04/20 12:20:48;;;;;;;6.03;4.25;;;;;;;;;;5032836;28;20075;-48
2021/04/20 12:23:19;;;;;;;5.57;3.78;;;;;;;;;;5032562;28;20454;-48
2021/04/20 12:25:49;;;;;;;5.63;4.10;;;;;;;;;;5032155;28;20037;-49
2021/04/20 12:28:17;;;;;;;8.32;4.78;;;;;;;;;;5032800;28;20578;-48
2021/04/20 12:30:47;;;;;;;6.78;4.55;;;;;;;;;;5033005;28;20115;-46
2021/04/20 12:33:23;;;;;;;6.95;4.45;;;;;;;;;;5032757;28;20032;-46
2021/04/20 12:35:50;;;;;;;5.68;3.75;;;;;;;;;;5032667;28;20018;-45
2021/04/20 12:38:19;;;;;;;6.05;4.20;;;;;;;;;;5033012;28;20036;-45
2021/04/20 12:40:45;;;;;;;6.65;4.22;;;;;;;;;;5032669;28;20466;-47
2021/04/20 12:43:12;;;;;;;7.00;4.20;;;;;;;;;;5032642;28;20116;-44
2021/04/20 12:45:40;;;;;;;6.00;4.53;;;;;;;;;;5032768;28;20472;-45
2021/04/20 12:48:07;;;;;;;6.95;5.00;;;;;;;;;;5033001;28;20059;-45
2021/04/20 12:50:41;;;;;;;7.10;4.82;;;;;;;;;;5032631;28;20024;-49
2021/04/20 12:53:07;;;;;;;8.02;5.63;;;;;;;;;;5032354;28;20121;-49
2021/04/20 12:55:35;;;;;;;8.85;5.40;;;;;;;;;;5032455;28;20049;-45
2021/04/20 12:58:28;;;;;;;10.38;6.72;;;;;;;;;;5032469;28;20064;-48
2021/04/20 13:01:01;;;;;;;8.02;5.95;;;;;;;;;;5029733;28;20072;-45
2021/04/20 13:03:28;;;;;;;9.77;6.30;;;;;;;;;;5032261;28;20034;-45
2021/04/20 13:05:54;;;;;;;9.05;6.85;;;;;;;;;;5032185;28;20021;-50
2021/04/20 13:08:22;;;;;;;10.00;6.78;;;;;;;;;;5032478;28;20369;-46
2021/04/20 13:10:58;;;;;;;10.02;7.47;;;;;;;;;;5032554;28;20099;-47
2021/04/20 13:13:27;;;;;;;10.82;7.85;;;;;;;;;;5032170;28;20025;-47
2021/04/20 13:15:57;;;;;;;11.57;8.60;;;;;;;;;;5032053;28;20072;-47
2021/04/20 13:18:25;;;;;;;9.57;7.30;;;;;;;;;;5032061;28;20030;-47
2021/04/20 13:20:55;;;;;;;11.30;7.93;;;;;;;;;;5032459;28;20084;-47
2021/04/20 13:23:28;;;;;;;10.57;7.72;;;;;;;;;;5032279;28;20036;-47
2021/04/20 13:25:58;;;;;;;11.73;9.13;;;;;;;;;;5032057;28;20095;-46
2021/04/20 13:28:25;;;;;;;14.07;9.07;;;;;;;;;;5032087;28;20116;-44
2021/04/20 13:30:52;;;;;;;9.55;6.60;;;;;;;;;;5032117;28;20061;-43
2021/04/20 13:33:20;;;;;;;7.47;5.13;;;;;;;;;;5031998;28;20029;-48
2021/04/20 13:35:47;;;;;;;6.22;3.92;;;;;;;;;;5032327;28;20384;-45
2021/04/20 13:38:13;;;;;;;5.95;4.30;;;;;;;;;;5033387;28;20369;-46
2021/04/20 13:40:40;;;;;;;5.15;3.60;;;;;;;;;;5036076;28;20029;-45
2021/04/20 13:43:06;;;;;;;6.95;4.43;;;;;;;;;;5036010;28;20030;-44
2021/04/20 13:45:34;;;;;;;7.68;4.75;;;;;;;;;;5035965;28;20033;-41
2021/04/20 13:48:00;;;;;;;9.38;5.72;;;;;;;;;;5035937;28;20025;-47
2021/04/20 13:50:34;;;;;;;8.20;5.72;;;;;;;;;;5035713;28;20030;-43
2021/04/20 13:53:06;;;;;;;7.72;5.95;;;;;;;;;;5017990;28;20097;-47
2021/04/20 13:55:33;;;;;;;8.55;6.35;;;;;;;;;;5035534;28;20111;-52
2021/04/20 13:58:04;;;;;;;8.52;6.05;;;;;;;;;;5035606;28;20099;-48
2021/04/20 14:00:32;;;;;;;9.57;6.97;;;;;;;;;;5035862;28;20022;-47
2021/04/20 14:03:00;;;;;;;8.43;6.22;;;;;;;;;;5035328;28;20049;-45
2021/04/20 14:05:31;;;;;;;7.82;5.80;;;;;;;;;;5035428;28;20120;-48
2021/04/20 14:07:57;;;;;;;9.93;6.28;;;;;;;;;;5035369;28;20026;-45
2021/04/20 14:10:24;;;;;;;8.73;6.05;;;;;;;;;;5035711;28;20033;-46
2021/04/20 14:12:52;;;;;;;10.80;6.65;;;;;;;;;;5035313;28;20025;-48
2021/04/20 14:15:25;;;;;;;8.82;5.70;;;;;;;;;;5035605;28;20052;-47
2021/04/20 14:18:04;;;;;;;9.30;6.10;;;;;;;;;;5035042;28;20060;-45
2021/04/20 14:20:35;;;;;;;11.98;7.10;;;;;;;;;;5035433;28;20029;-45
2021/04/20 14:23:02;;;;;;;8.43;4.88;;;;;;;;;;5035191;28;20128;-52
2021/04/20 14:25:55;;;;;;;11.25;6.35;;;;;;;;;;5035082;28;20045;-51
2021/04/20 14:28:28;;;;;;;7.88;3.97;;;;;;;;;;5032319;28;20029;-45
2021/04/20 14:30:55;;;;;;;6.78;4.25;;;;;;;;;;5035347;28;20037;-43
2021/04/20 14:33:28;;;;;;;8.95;5.25;;;;;;;;;;5035218;28;20033;-45
2021/04/20 14:35:56;;;;;;;6.97;4.20;;;;;;;;;;5035255;28;20029;-44
2021/04/20 14:38:32;;;;;;;8.32;4.95;;;;;;;;;;5034992;28;20485;-47
2021/04/20 14:40:58;;;;;;;9.55;5.80;;;;;;;;;;5034898;28;20459;-48
2021/04/20 14:43:25;;;;;;;5.40;3.40;;;;;;;;;;5034665;28;20068;-48
2021/04/20 14:45:51;;;;;;;5.20;3.25;;;;;;;;;;5034790;28;20034;-47
2021/04/20 14:48:19;;;;;;;5.75;3.80;;;;;;;;;;5035150;28;20419;-48
2021/04/20 14:50:45;;;;;;;5.93;3.80;;;;;;;;;;5034614;28;20082;-52
2021/04/20 14:53:12;;;;;;;6.47;3.88;;;;;;;;;;5034791;28;20029;-47